createdAt,value
2019-05-26T00:00:13.860Z,13.14
2019-05-26T00:05:21.302Z,12.91
2019-05-26T00:10:32.174Z,12.99
2019-05-26T00:15:37.840Z,13.01
2019-05-26T00:20:43.312Z,12.66
2019-05-26T00:25:48.703Z,12.63
2019-05-26T00:30:55.025Z,12.66
2019-05-26T00:36:00.290Z,12.77
2019-05-26T00:41:05.679Z,12.84
2019-05-26T00:46:11.332Z,12.86
2019-05-26T00:51:16.536Z,12.80
2019-05-26T00:56:23.880Z,12.96
2019-05-26T01:01:29.208Z,12.83
2019-05-26T01:06:34.484Z,12.80
2019-05-26T01:11:40.506Z,12.87
2019-05-26T01:16:45.979Z,12.58
2019-05-26T01:21:51.233Z,12.90
2019-05-26T01:26:59.637Z,12.76
2019-05-26T01:32:05.627Z,12.95
2019-05-26T01:37:10.968Z,12.94
2019-05-26T01:42:17.589Z,13.13
2019-05-26T01:47:25.083Z,12.91
2019-05-26T01:52:31.381Z,12.70
2019-05-26T01:57:38.258Z,12.85
2019-05-26T02:02:43.914Z,13.07
2019-05-26T02:07:49.912Z,13.08
2019-05-26T02:12:56.479Z,12.92
2019-05-26T02:18:03.333Z,12.88
2019-05-26T02:23:10.904Z,12.87
2019-05-26T02:28:16.195Z,12.81
2019-05-26T02:33:21.581Z,12.77
2019-05-26T02:38:26.914Z,12.70
2019-05-26T02:43:32.197Z,12.61
2019-05-26T02:48:37.681Z,12.33
2019-05-26T02:53:42.957Z,12.33
2019-05-26T02:58:49.317Z,12.37
2019-05-26T03:03:55.992Z,12.17
2019-05-26T03:09:21.069Z,12.32
2019-05-26T03:14:12.360Z,12.17
2019-05-26T03:19:20.305Z,11.77
2019-05-26T03:24:29.079Z,12.17
2019-05-26T03:29:36.209Z,12.20
2019-05-26T03:34:43.321Z,12.00
2019-05-26T03:39:48.484Z,11.76
2019-05-26T03:44:54.025Z,12.20
2019-05-26T03:49:59.373Z,12.29
2019-05-26T03:55:05.086Z,12.10
2019-05-26T04:00:11.262Z,11.80
2019-05-26T04:05:16.488Z,11.77
2019-05-26T04:10:21.791Z,11.70
2019-05-26T04:15:27.400Z,11.85
2019-05-26T04:20:32.558Z,12.00
2019-05-26T04:25:37.786Z,12.45
2019-05-26T04:30:43.901Z,12.71
2019-05-26T04:35:50.739Z,12.12
2019-05-26T04:40:57.086Z,11.99
2019-05-26T04:46:02.318Z,12.28
2019-05-26T04:51:07.833Z,12.98
2019-05-26T04:56:13.231Z,13.63
2019-05-26T05:01:19.456Z,14.30
2019-05-26T05:06:27.026Z,14.54
2019-05-26T05:11:32.302Z,14.89
2019-05-26T05:16:38.706Z,15.69
2019-05-26T05:21:43.951Z,17.34
2019-05-26T05:26:49.468Z,17.81
2019-05-26T05:31:54.698Z,18.22
2019-05-26T05:36:59.881Z,17.95
2019-05-26T05:42:05.467Z,18.99
2019-05-26T05:47:10.961Z,18.39
2019-05-26T05:52:16.264Z,19.69
2019-05-26T05:57:21.405Z,19.38
2019-05-26T06:02:27.140Z,20.38
2019-05-26T06:07:32.438Z,21.55
2019-05-26T06:12:37.779Z,21.98
2019-05-26T06:17:44.491Z,22.80
2019-05-26T06:22:49.764Z,21.63
2019-05-26T06:27:54.971Z,22.72
2019-05-26T06:33:00.272Z,22.91
2019-05-26T06:38:05.461Z,23.24
2019-05-26T06:43:11.360Z,24.10
2019-05-26T06:48:16.644Z,23.30
2019-05-26T06:53:21.867Z,22.63
2019-05-26T06:58:27.075Z,24.59
2019-05-26T07:03:32.413Z,22.00
2019-05-26T07:08:37.637Z,22.16
2019-05-26T07:13:42.937Z,22.13
2019-05-26T07:18:48.383Z,22.69
2019-05-26T07:23:54.601Z,23.26
2019-05-26T07:28:59.745Z,22.42
2019-05-26T07:34:06.430Z,22.36
2019-05-26T07:39:11.632Z,20.56
2019-05-26T07:44:16.886Z,22.17
2019-05-26T07:49:22.128Z,21.46
2019-05-26T07:54:27.317Z,22.80
2019-05-26T07:59:32.544Z,21.56
2019-05-26T08:04:47.680Z,21.22
2019-05-26T08:09:53.068Z,21.27
2019-05-26T08:15:00.811Z,22.06
2019-05-26T08:20:07.075Z,21.80
2019-05-26T08:25:14.182Z,20.91
2019-05-26T08:30:19.899Z,20.90
2019-05-26T08:35:27.248Z,21.58
2019-05-26T08:40:32.404Z,21.07
2019-05-26T08:45:37.946Z,22.11
2019-05-26T08:50:43.266Z,21.29
2019-05-26T08:55:48.479Z,21.20
2019-05-26T09:00:53.676Z,22.01
2019-05-26T09:05:59.990Z,21.06
2019-05-26T09:11:05.704Z,21.68
2019-05-26T09:16:10.979Z,22.01
2019-05-26T09:21:16.509Z,21.87
2019-05-26T09:26:22.056Z,20.82
2019-05-26T09:31:27.376Z,22.16
2019-05-26T09:36:32.713Z,21.54
2019-05-26T09:41:38.418Z,21.51
2019-05-26T09:46:44.748Z,21.09
2019-05-26T09:51:51.424Z,22.11
2019-05-26T09:56:57.883Z,21.46
2019-05-26T10:02:03.527Z,21.34
2019-05-26T10:07:12.223Z,21.70
2019-05-26T10:12:16.185Z,21.62
2019-05-26T10:17:23.344Z,21.29
2019-05-26T10:22:30.740Z,21.68
2019-05-26T10:27:36.221Z,21.79
2019-05-26T10:32:41.446Z,21.61
2019-05-26T10:37:46.858Z,22.07
2019-05-26T10:42:52.024Z,22.20
2019-05-26T10:47:58.699Z,22.27
2019-05-26T10:53:04.036Z,22.00
2019-05-26T10:58:09.461Z,21.85
2019-05-26T11:03:14.851Z,22.06
2019-05-26T11:08:20.482Z,22.44
2019-05-26T11:13:26.856Z,22.62
2019-05-26T11:18:32.094Z,22.36
2019-05-26T11:23:37.340Z,23.00
2019-05-26T11:28:42.612Z,22.82
2019-05-26T11:33:47.741Z,23.27
2019-05-26T11:38:52.943Z,22.47
2019-05-26T11:43:58.112Z,22.54
2019-05-26T11:49:03.385Z,22.64
2019-05-26T11:54:08.707Z,22.93
2019-05-26T11:59:13.985Z,23.37
2019-05-26T12:04:19.523Z,23.49
2019-05-26T12:09:25.359Z,23.42
2019-05-26T12:14:34.967Z,23.06
2019-05-26T12:19:37.886Z,22.82
2019-05-26T12:24:44.180Z,22.86
2019-05-26T12:29:49.469Z,23.25
2019-05-26T12:34:54.677Z,23.36
2019-05-26T12:40:00.019Z,22.98
2019-05-26T12:45:06.068Z,22.98
2019-05-26T12:50:11.378Z,23.30
2019-05-26T12:55:16.708Z,23.42
2019-05-26T13:00:22.120Z,23.05
2019-05-26T13:05:27.267Z,23.76
2019-05-26T13:10:32.467Z,22.94
2019-05-26T13:15:37.595Z,23.53
2019-05-26T13:20:42.854Z,23.66
2019-05-26T13:25:48.785Z,23.54
2019-05-26T13:30:54.782Z,23.88
2019-05-26T13:36:01.410Z,23.70
2019-05-26T13:41:09.549Z,23.24
2019-05-26T13:46:17.701Z,24.13
2019-05-26T13:51:22.850Z,24.27
2019-05-26T13:56:28.034Z,24.09
2019-05-26T14:01:34.861Z,24.15
2019-05-26T14:06:40.135Z,24.04
2019-05-26T14:11:45.548Z,24.12
2019-05-26T14:16:53.381Z,23.70
2019-05-26T14:21:58.622Z,23.96
2019-05-26T14:27:05.690Z,24.01
2019-05-26T14:32:12.577Z,24.14
2019-05-26T14:37:18.099Z,23.91
2019-05-26T14:42:23.657Z,23.76
2019-05-26T14:47:29.198Z,24.05
2019-05-26T14:52:34.408Z,23.99
2019-05-26T14:57:39.765Z,24.05
2019-05-26T15:02:45.142Z,24.30
2019-05-26T15:07:51.842Z,24.13
2019-05-26T15:12:57.076Z,24.20
2019-05-26T15:18:02.310Z,24.04
2019-05-26T15:23:07.569Z,23.99
2019-05-26T15:28:14.842Z,23.53
2019-05-26T15:33:20.111Z,23.98
2019-05-26T15:38:25.343Z,24.17
2019-05-26T15:43:30.690Z,23.77
2019-05-26T15:48:36.188Z,23.83
2019-05-26T15:53:43.251Z,23.67
2019-05-26T15:58:48.787Z,23.48
2019-05-26T16:03:54.259Z,23.45
2019-05-26T16:08:59.866Z,23.68
2019-05-26T16:14:06.309Z,23.38
2019-05-26T16:19:11.488Z,23.35
2019-05-26T16:24:16.761Z,23.24
2019-05-26T16:29:22.599Z,23.37
2019-05-26T16:34:27.808Z,23.47
2019-05-26T16:39:36.910Z,23.42
2019-05-26T16:44:40.775Z,23.25
2019-05-26T16:49:46.288Z,23.56
2019-05-26T16:54:51.559Z,23.25
2019-05-26T16:59:57.272Z,23.67
2019-05-26T17:05:02.415Z,23.17
2019-05-26T17:10:15.313Z,23.37
2019-05-26T17:15:21.782Z,23.00
2019-05-26T17:20:27.671Z,23.32
2019-05-26T17:25:32.931Z,23.08
2019-05-26T17:30:38.352Z,23.15
2019-05-26T17:35:43.751Z,22.97
2019-05-26T17:40:49.056Z,23.00
2019-05-26T17:45:54.285Z,22.88
2019-05-26T17:50:59.485Z,22.97
2019-05-26T17:56:04.818Z,22.99
2019-05-26T18:01:09.977Z,22.65
2019-05-26T18:06:15.373Z,22.56
2019-05-26T18:11:20.492Z,22.72
2019-05-26T18:16:25.909Z,22.39
2019-05-26T18:21:31.345Z,22.43
2019-05-26T18:26:36.682Z,22.33
2019-05-26T18:31:45.514Z,22.42
2019-05-26T18:36:51.121Z,22.27
2019-05-26T18:41:56.350Z,21.89
2019-05-26T18:47:01.908Z,22.06
2019-05-26T18:52:07.184Z,21.98
2019-05-26T18:57:13.383Z,21.71
2019-05-26T19:02:18.628Z,21.42
2019-05-26T19:07:23.882Z,21.38
2019-05-26T19:12:29.443Z,21.30
2019-05-26T19:17:34.764Z,21.20
2019-05-26T19:22:39.970Z,20.99
2019-05-26T19:27:45.593Z,20.99
2019-05-26T19:32:51.176Z,21.02
2019-05-26T19:37:56.588Z,20.86
2019-05-26T19:43:01.788Z,20.66
2019-05-26T19:48:07.207Z,20.60
2019-05-26T19:53:12.403Z,20.40
2019-05-26T19:58:17.575Z,20.21
2019-05-26T20:03:23.998Z,19.93
2019-05-26T20:08:29.436Z,19.92
2019-05-26T20:13:35.676Z,19.70
2019-05-26T20:18:41.171Z,19.61
2019-05-26T20:23:46.609Z,19.42
2019-05-26T20:28:53.388Z,19.45
2019-05-26T20:33:59.044Z,19.48
2019-05-26T20:39:06.194Z,18.91
2019-05-26T20:44:11.485Z,19.35
2019-05-26T20:49:16.762Z,19.13
2019-05-26T20:54:21.923Z,19.18
2019-05-26T20:59:27.190Z,19.03
2019-05-26T21:04:32.462Z,19.08
2019-05-26T21:09:41.839Z,18.23
2019-05-26T21:14:47.519Z,18.33
2019-05-26T21:19:53.032Z,18.28
2019-05-26T21:24:58.229Z,18.30
2019-05-26T21:30:03.496Z,18.25
2019-05-26T21:35:09.409Z,18.23
2019-05-26T21:40:15.811Z,18.14
2019-05-26T21:45:21.116Z,18.04
2019-05-26T21:50:26.352Z,17.92
2019-05-26T21:55:31.647Z,17.93
2019-05-26T22:00:41.305Z,17.96
2019-05-26T22:05:46.927Z,17.92
2019-05-26T22:10:52.203Z,17.71
2019-05-26T22:15:57.489Z,17.73
2019-05-26T22:21:02.979Z,17.76
2019-05-26T22:26:08.496Z,17.77
2019-05-26T22:31:13.720Z,17.90
2019-05-26T22:36:19.198Z,17.74
2019-05-26T22:41:24.457Z,17.59
2019-05-26T22:46:29.653Z,17.43
2019-05-26T22:51:35.150Z,17.11
2019-05-26T22:56:40.352Z,16.80
2019-05-26T23:01:45.572Z,17.24
2019-05-26T23:06:50.934Z,17.21
2019-05-26T23:11:56.304Z,17.11
2019-05-26T23:17:01.684Z,16.62
2019-05-26T23:22:06.970Z,16.16
2019-05-26T23:27:12.282Z,16.02
2019-05-26T23:32:17.516Z,16.29
2019-05-26T23:37:23.268Z,16.38
2019-05-26T23:42:28.519Z,16.60
2019-05-26T23:47:33.779Z,16.37
2019-05-26T23:52:39.223Z,16.38
2019-05-26T23:57:44.406Z,16.45
